METAR

TAF

 




Curitiba / Bacacheri, PR - SBBI


05 de Março de 2015 às 23:00 (UTC)


Tempo:

Céu parcialmente nublado, com chuva e trovoada

Temperatura:

19ºC

Umidade Relativa:

100%

Localização:
Ajuste do Altímetro:

1018 hPa

Visibilidade Horizontal Predominante:

3000 m

Direção e Velocidade do Vento:

210° 11,11 Km/h


Observação Meteorológica:

METAR SBBI 052300Z 21006KT 3000 RA SCT030 BKN100 19/19 Q1018 RETS=